Private Wetterstation Nrnberg - Katzwang
Wetterdaten: Februar 2010
Datum Temp. A. Feuchte A. Luftdruck Regen Wind Richtung Taupunkt Windchill Windben
01.02.2010 -1,9 C 83 % 1009 hPa 0,0 l/m 6,7 km/h W-NW -4,4 C -3,8 C 7,7 km/h
02.02.2010 0,4 C 83 % 1009 hPa 0,0 l/m 6,5 km/h W-NW -2,2 C -1,2 C 7,5 km/h
03.02.2010 1,6 C 90 % 1010 hPa 1,0 l/m 2,7 km/h W-NW 0,1 C 0,6 C 3,7 km/h
04.02.2010 2,7 C 89 % 1012 hPa 1,6 l/m 6,3 km/h N-NO 0,9 C 2,5 C 7,3 km/h
05.02.2010 1,0 C 90 % 1008 hPa 0,0 l/m 7,9 km/h NO -0,6 C -0,8 C 8,9 km/h
06.02.2010 2,3 C 92 % 1011 hPa 0,0 l/m 0,0 km/h N-NO 1,0 C 2,3 C 1,0 km/h
07.02.2010 0,1 C 85 % 1015 hPa 0,0 l/m 6,6 km/h N-NO -2,3 C -2,1 C 7,7 km/h
08.02.2010 -4,0 C 81 % 1007 hPa 0,0 l/m 7,0 km/h O -6,8 C -4,7 C 8,0 km/h
09.02.2010 -5,2 C 81 % 1002 hPa 0,0 l/m 7,2 km/h O -7,9 C -7,0 C 8,2 km/h
10.02.2010 -5,0 C 82 % 1004 hPa 0,0 l/m 0,5 km/h W-NW -7,6 C -5,0 C 1,5 km/h
11.02.2010 -4,5 C 83 % 1003 hPa 0,0 l/m 5,5 km/h N-NO -7,0 C -5,9 C 6,5 km/h
12.02.2010 -3,0 C 86 % 1010 hPa 0,0 l/m 0,0 km/h N -5,1 C -3,0 C 1,0 km/h
13.02.2010 -2,6 C 83 % 1011 hPa 0,0 l/m 0,0 km/h W-NW -5,0 C -2,6 C 1,0 km/h
14.02.2010 -2,7 C 84 % 1010 hPa 0,0 l/m 2,2 km/h NO -5,1 C -3,4 C 3,2 km/h
15.02.2010 -3,3 C 78 % 1006 hPa 0,0 l/m 4,4 km/h NO -6,7 C -4,7 C 5,4 km/h
16.02.2010 -4,8 C 81 % 1001 hPa 0,0 l/m 2,7 km/h O-NO -7,6 C -4,9 C 3,7 km/h
17.02.2010 -1,1 C 80 % 995 hPa 0,0 l/m 4,8 km/h O-NO -4,3 C -2,5 C 5,8 km/h
18.02.2010 1,4 C 87 % 998 hPa 0,0 l/m 1,9 km/h O-NO -0,6 C 1,4 C 2,9 km/h
19.02.2010 2,7 C 90 % 992 hPa 2,6 l/m 1,0 km/h W-NW 1,2 C 2,7 C 2,0 km/h
20.02.2010 1,2 C 82 % 999 hPa 0,0 l/m 2,9 km/h W-NW -1,7 C 0,6 C 3,9 km/h
21.02.2010 0,3 C 83 % 1000 hPa 1,0 l/m 3,9 km/h O -2,3 C -0,4 C 4,9 km/h
22.02.2010 3,2 C 81 % 995 hPa 0,0 l/m 1,9 km/h NO 0,2 C 3,2 C 2,9 km/h
23.02.2010 6,1 C 85 % 996 hPa 1,0 l/m 7,2 km/h N-NO 3,6 C 4,5 C 8,2 km/h
24.02.2010 6,2 C 82 % 1001 hPa 0,0 l/m 8,4 km/h NO 3,3 C 3,9 C 9,4 km/h
25.02.2010 7,8 C 69 % 999 hPa 0,0 l/m 8,0 km/h NO 2,1 C 6,2 C 9,1 km/h
26.02.2010 6,3 C 82 % 997 hPa 1,6 l/m 6,8 km/h W-NW 3,3 C 5,2 C 7,8 km/h
27.02.2010 5,8 C 63 % 1002 hPa 0,0 l/m 10,3 km/h W-NW -1,0 C 2,3 C 11,3 km/h
28.02.2010 8,7 C 62 % 994 hPa 2,1 l/m 8,0 km/h NO 1,5 C 7,5 C 19,6 km/h
Min-Datum 17.02.10 28.02.10 19.02.10 7 Tage 01.02.10 - 17.02.10 09.02.10 01.02.10
Min-Zeit 03:20 17:00 13:50 - 00:20 - 03:20 07:50 00:20
Minimum -10,6 C 43 % 989 hPa - 0,0 km/h - -12,6 C -18,2 C 1,0 km/h
Max-Datum 28.02.10 06.02.10 07.02.10 19.02.10 02.02.10 - 24.02.10 25.02.10 28.02.10
Max-Zeit 14:50 11:20 09:20 00:10 17:30 - 11:20 14:30 13:40
Maximum 14,9 C 95 % 1017 hPa 2,6 l/m 46,5 km/h
W-NW
- 7,0 C 13,4 C 74,9 km/h
NO
Durchschnitt 0,7 C 82 % 1003 hPa #10,9 l/m 4,7 km/h NO -2,2 C -0,3 C 6,1 km/h

Durchschnitt Minimum Temp.-2,2 C
Durchschnitt Maximum Temp.4,5 C